KSNS

Salinas Municipal Airport

Salinas, California, USA
METAR KSNS 202053Z 30008KT 9SM CLR 24/11 A2995 RMK AO2 SLP150 T02390111 58021
Observed Flight Rules
Oct-20 @ 20:53 UTC (30 minutes ago) Visual Flight Rules
Wind Visibility Clouds
300° at 8 knots 9 miles
  • Clear skies
Temperatures Readings
Current 24°C / 75°F
Dewpoint 11°C / 52°F
Humidity 44%
Altimeter 29.95" Hg
Pressure 1015 hPa
Elevation 30
METAR KSNS 202053Z 30008KT 9SM CLR 24/11 A2995 RMK AO2 SLP150 T02390111 58021
Observed Flight Rules
Oct-20 @ 20:53 UTC
(30 minutes ago)
VFR
Wind Visibility
300° at 8 knots 9 miles
Clouds
  • Clear skies
Temperature Dewpoint
24°C / 75°F 11°C / 52°F
Humidity Altimeter Pressure
44% 29.95" Hg 1015 hPa